createdAt,value
2022-08-19T00:00:54.319Z,6.30
2022-08-19T00:01:54.277Z,6.10
2022-08-19T00:02:54.746Z,6.40
2022-08-19T00:03:54.186Z,6.40
2022-08-19T00:04:54.232Z,6.40
2022-08-19T00:05:54.103Z,6.20
2022-08-19T00:06:54.055Z,6.20
2022-08-19T00:07:54.013Z,5.80
2022-08-19T00:08:53.968Z,6.20
2022-08-19T00:09:53.947Z,6.10
2022-08-19T00:10:53.885Z,6.20
2022-08-19T00:11:53.838Z,6.30
2022-08-19T00:12:53.796Z,6.40
2022-08-19T00:13:53.755Z,6.20
2022-08-19T00:14:53.713Z,6.40
2022-08-19T00:15:53.665Z,6.30
2022-08-19T00:16:53.618Z,6.00
2022-08-19T00:17:53.575Z,5.70
2022-08-19T00:18:53.533Z,6.20
2022-08-19T00:19:53.491Z,6.10
2022-08-19T00:20:53.446Z,6.40
2022-08-19T00:21:53.399Z,5.90
2022-08-19T00:22:53.560Z,6.80
2022-08-19T00:23:53.309Z,6.60
2022-08-19T00:24:53.270Z,6.50
2022-08-19T00:25:53.226Z,6.60
2022-08-19T00:26:53.187Z,6.80
2022-08-19T00:27:53.135Z,6.60
2022-08-19T00:28:53.097Z,5.90
2022-08-19T00:29:53.054Z,6.70
2022-08-19T00:30:53.006Z,6.80
2022-08-19T00:31:52.962Z,6.60
2022-08-19T00:32:53.066Z,6.50
2022-08-19T00:33:52.876Z,6.60
2022-08-19T00:34:52.837Z,6.40
2022-08-19T00:35:56.011Z,6.40
2022-08-19T00:36:52.743Z,6.70
2022-08-19T00:37:52.699Z,7.10
2022-08-19T00:38:52.669Z,6.40
2022-08-19T00:39:52.654Z,6.80
2022-08-19T00:40:52.567Z,6.80
2022-08-19T00:41:52.526Z,6.70
2022-08-19T00:42:52.648Z,6.40
2022-08-19T00:43:52.437Z,6.50
2022-08-19T00:44:52.393Z,6.60
2022-08-19T00:45:52.349Z,6.20
2022-08-19T00:46:58.053Z,6.10
2022-08-19T00:47:52.257Z,6.50
2022-08-19T00:48:52.220Z,6.70
2022-08-19T00:49:52.252Z,6.80
2022-08-19T00:50:52.485Z,6.40
2022-08-19T00:51:52.083Z,6.60
2022-08-19T05:11:44.637Z,12.70
2022-08-19T05:12:44.587Z,12.50
2022-08-19T05:13:44.544Z,12.60
2022-08-19T05:14:44.494Z,12.40
2022-08-19T05:15:44.451Z,13.60
2022-08-19T05:16:44.403Z,12.40
2022-08-19T05:17:44.355Z,13.40
2022-08-19T05:18:44.307Z,13.60
2022-08-19T05:19:44.262Z,13.50
2022-08-19T05:20:44.216Z,13.30
2022-08-19T05:21:44.174Z,13.20
2022-08-19T05:29:50.565Z,13.30
2022-08-19T05:30:50.526Z,14.00
2022-08-19T05:31:50.477Z,13.60
2022-08-19T05:32:50.505Z,13.50
2022-08-19T05:33:50.388Z,12.80
2022-08-19T05:34:50.341Z,13.00
2022-08-19T05:35:52.923Z,12.90
2022-08-19T05:36:50.263Z,13.80
2022-08-19T05:38:50.176Z,13.30
2022-08-19T05:39:51.652Z,13.20
2022-08-19T05:40:50.084Z,13.30
2022-08-19T05:41:50.040Z,14.50
2022-08-19T05:42:54.923Z,13.40
2022-08-19T05:43:49.953Z,13.80
2022-08-19T05:44:53.562Z,13.30
2022-08-19T05:45:49.872Z,14.10
2022-08-19T05:46:49.821Z,14.30
2022-08-19T05:47:49.778Z,15.30
2022-08-19T05:48:49.743Z,14.60
2022-08-19T05:49:49.711Z,15.40
2022-08-19T05:50:49.657Z,14.80
2022-08-19T05:51:49.613Z,14.80
2022-08-19T05:52:54.289Z,15.90
2022-08-19T05:53:49.523Z,16.20
2022-08-19T05:54:51.058Z,16.50
2022-08-19T05:55:49.441Z,17.80
2022-08-19T05:56:49.401Z,16.70
2022-08-19T05:57:49.347Z,16.70
2022-08-19T05:58:49.309Z,16.50
2022-08-19T05:59:52.610Z,16.80
2022-08-19T06:00:49.222Z,15.20
2022-08-19T06:01:49.177Z,15.30
2022-08-19T06:02:49.232Z,15.30
2022-08-19T06:03:49.092Z,16.30
2022-08-19T06:04:49.051Z,15.50
2022-08-19T06:05:52.082Z,15.60
2022-08-19T06:06:48.965Z,16.20
2022-08-19T06:07:48.920Z,19.00
2022-08-19T06:08:48.877Z,20.60
2022-08-19T06:09:56.021Z,21.50
2022-08-19T06:10:48.791Z,20.20
2022-08-19T06:11:51.771Z,20.50
2022-08-19T06:12:48.706Z,21.10
2022-08-19T06:13:48.661Z,20.30
2022-08-19T06:14:48.619Z,19.70
2022-08-19T06:15:48.574Z,20.70
2022-08-19T06:16:48.533Z,20.80
2022-08-19T06:17:48.488Z,18.80
2022-08-19T06:18:48.445Z,20.00
2022-08-19T06:19:48.402Z,20.30
2022-08-19T06:20:56.326Z,20.50
2022-08-19T06:23:17.194Z,20.70
2022-08-19T06:24:16.708Z,20.20
2022-08-19T06:25:16.671Z,19.70
2022-08-19T06:26:16.620Z,19.40
2022-08-19T06:27:16.580Z,20.60
2022-08-19T06:28:17.119Z,19.80
2022-08-19T06:29:23.793Z,21.40
2022-08-19T06:30:16.449Z,21.40
2022-08-19T06:31:16.407Z,21.00
2022-08-19T06:32:16.363Z,20.70
2022-08-19T06:33:16.320Z,21.10
2022-08-19T06:34:16.276Z,21.00
2022-08-19T06:35:16.235Z,22.10
2022-08-19T06:36:16.191Z,21.80
2022-08-19T06:37:16.153Z,22.30
2022-08-19T06:38:16.104Z,23.90
2022-08-19T06:39:16.066Z,23.60
2022-08-19T06:40:16.087Z,22.80
2022-08-19T06:41:15.979Z,22.70
2022-08-19T06:42:15.933Z,23.90
2022-08-19T06:43:15.888Z,23.10
2022-08-19T06:44:16.049Z,23.70
2022-08-19T06:45:15.807Z,22.20
2022-08-19T06:46:16.058Z,22.90
2022-08-19T06:47:23.142Z,25.10
2022-08-19T06:48:15.674Z,26.20
2022-08-19T06:49:15.637Z,27.00
2022-08-19T06:50:15.591Z,25.40
2022-08-19T06:51:15.577Z,25.10
2022-08-19T06:52:15.504Z,24.70
2022-08-19T06:53:15.471Z,25.20
2022-08-19T06:54:19.339Z,25.30
2022-08-19T06:55:15.379Z,25.20
2022-08-19T06:56:15.338Z,25.70
2022-08-19T06:57:15.330Z,25.90
2022-08-19T06:58:15.246Z,26.90
2022-08-19T06:59:15.208Z,25.70
2022-08-19T07:00:15.235Z,25.60
2022-08-19T07:01:15.123Z,25.60
2022-08-19T07:02:15.108Z,24.60
2022-08-19T07:03:15.210Z,25.00
2022-08-19T07:04:15.014Z,25.60
2022-08-19T07:05:14.953Z,24.30
2022-08-19T07:06:41.142Z,23.60
2022-08-19T07:07:21.545Z,24.90
2022-08-19T07:08:14.826Z,23.40
2022-08-19T07:09:14.787Z,24.60
2022-08-19T07:10:14.739Z,25.80
2022-08-19T07:11:14.695Z,25.30
2022-08-19T07:12:14.652Z,25.10
2022-08-19T07:13:14.612Z,24.70
2022-08-19T07:25:32.207Z,26.80
2022-08-19T07:26:27.804Z,25.90
2022-08-19T07:27:24.520Z,26.70
2022-08-19T07:28:24.752Z,25.90
2022-08-19T07:29:23.217Z,25.90
2022-08-19T07:30:23.172Z,26.00
2022-08-19T07:31:23.220Z,26.40
2022-08-19T07:32:23.089Z,25.30
2022-08-19T07:33:23.048Z,25.80
2022-08-19T07:34:23.004Z,27.40
2022-08-19T07:35:22.963Z,27.60
2022-08-19T07:36:22.922Z,27.20
2022-08-19T07:37:22.880Z,26.60
2022-08-19T07:38:22.835Z,27.10
2022-08-19T07:39:22.794Z,27.50
2022-08-19T07:40:22.752Z,28.10
2022-08-19T07:41:22.709Z,28.90
2022-08-19T07:42:22.665Z,29.30
2022-08-19T07:43:22.629Z,30.30
2022-08-19T07:44:22.580Z,31.60
2022-08-19T07:45:22.542Z,31.70
2022-08-19T07:46:22.498Z,30.40
2022-08-19T07:47:47.747Z,31.60
2022-08-19T07:48:22.413Z,30.40
2022-08-19T07:49:22.371Z,31.40
2022-08-19T07:50:22.330Z,30.40
2022-08-19T07:51:36.412Z,29.10
2022-08-19T07:52:22.246Z,29.60
2022-08-19T07:53:22.205Z,29.50
2022-08-19T07:54:22.161Z,27.90
2022-08-19T07:55:42.143Z,27.90
2022-08-19T07:56:22.078Z,28.40
2022-08-19T07:57:22.038Z,27.70
2022-08-19T07:58:21.994Z,27.60
2022-08-19T07:59:21.956Z,25.80
2022-08-19T08:00:24.262Z,26.70
2022-08-19T08:01:21.942Z,27.40
2022-08-19T08:02:21.831Z,26.20
2022-08-19T08:03:21.787Z,26.40
2022-08-19T08:04:21.741Z,25.10
2022-08-19T08:05:21.704Z,26.00
2022-08-19T08:06:21.658Z,25.80
2022-08-19T08:07:21.617Z,26.40
2022-08-19T08:08:21.574Z,24.70
2022-08-19T08:10:21.661Z,26.80
2022-08-19T08:11:21.451Z,27.20
2022-08-19T08:12:34.115Z,28.00
2022-08-19T08:13:21.370Z,25.90
2022-08-19T08:14:29.504Z,26.60
2022-08-19T08:15:21.287Z,26.20
2022-08-19T08:16:21.287Z,24.90
2022-08-19T08:17:30.999Z,25.00
2022-08-19T08:18:21.161Z,27.70
2022-08-19T08:19:25.300Z,26.70
2022-08-19T08:20:21.601Z,27.70
2022-08-19T08:21:21.051Z,24.80
2022-08-19T08:22:20.994Z,24.40
2022-08-19T08:23:20.981Z,24.10
2022-08-19T08:24:20.917Z,25.10
2022-08-19T08:25:20.887Z,24.60
2022-08-19T08:26:20.831Z,25.60
2022-08-19T08:27:22.627Z,25.50
2022-08-19T08:28:20.751Z,25.10
2022-08-19T08:29:20.709Z,23.90
2022-08-19T08:30:20.666Z,25.40
2022-08-19T08:31:20.636Z,25.40
2022-08-19T08:32:20.585Z,24.20
2022-08-19T08:33:30.042Z,23.50
2022-08-19T08:34:20.502Z,23.20
2022-08-19T08:35:20.468Z,24.10
2022-08-19T08:36:20.423Z,22.00
2022-08-19T08:37:20.380Z,23.90
2022-08-19T08:38:20.337Z,24.80
2022-08-19T08:39:20.300Z,23.10
2022-08-19T08:40:20.362Z,21.60
2022-08-19T08:41:20.242Z,22.30
2022-08-19T08:42:20.173Z,22.60
2022-08-19T08:43:20.136Z,20.90
2022-08-19T08:44:21.986Z,20.20
2022-08-19T08:45:20.052Z,18.70
2022-08-19T08:46:30.924Z,17.90
2022-08-19T08:47:19.972Z,18.00
2022-08-19T08:48:22.314Z,16.00
2022-08-19T08:49:19.891Z,17.00
2022-08-19T08:50:20.325Z,17.30
2022-08-19T08:51:20.270Z,17.40
2022-08-19T08:52:19.765Z,15.60
2022-08-19T08:53:26.301Z,16.40
2022-08-19T08:54:19.681Z,15.70
2022-08-19T08:55:20.334Z,14.70
2022-08-19T08:56:19.650Z,15.50
2022-08-19T08:57:19.561Z,14.30
2022-08-19T08:58:19.519Z,15.20
2022-08-19T08:59:19.480Z,14.20
2022-08-19T09:00:19.605Z,14.70
2022-08-19T09:01:19.408Z,15.40
2022-08-19T09:02:19.354Z,14.80
2022-08-19T09:03:19.316Z,14.60
2022-08-19T09:04:19.271Z,13.70
2022-08-19T09:05:19.232Z,12.80
2022-08-19T09:06:19.190Z,12.50
2022-08-19T09:07:35.250Z,13.20
2022-08-19T09:08:19.360Z,12.70
2022-08-19T09:09:19.068Z,13.20
2022-08-19T09:10:19.035Z,12.80
2022-08-19T09:11:42.205Z,14.30
2022-08-19T09:12:18.946Z,12.50
2022-08-19T09:13:18.906Z,13.20
2022-08-19T09:14:46.961Z,12.20
2022-08-19T09:15:18.823Z,12.40
2022-08-19T09:16:18.781Z,12.80
2022-08-19T09:17:18.742Z,12.50
2022-08-19T09:18:19.203Z,13.40
2022-08-19T09:19:22.383Z,13.00
2022-08-19T09:20:18.617Z,12.60
2022-08-19T09:21:20.089Z,11.70
2022-08-19T09:22:25.361Z,13.30
2022-08-19T09:23:18.498Z,12.50
2022-08-19T09:24:18.451Z,11.40
2022-08-19T09:25:26.809Z,11.10
2022-08-19T09:26:18.373Z,10.60
2022-08-19T09:27:18.914Z,10.80
2022-08-19T09:28:22.553Z,10.20
2022-08-19T09:29:18.256Z,9.50
2022-08-19T09:30:18.230Z,10.90
2022-08-19T09:33:47.689Z,12.10
2022-08-19T09:34:50.845Z,12.10
2022-08-19T09:35:49.646Z,11.50
2022-08-19T09:36:47.564Z,11.40
2022-08-19T09:37:47.653Z,11.70
2022-08-19T09:38:47.483Z,10.20
2022-08-19T09:39:47.476Z,10.20
2022-08-19T09:40:47.403Z,12.10
2022-08-19T09:41:49.175Z,10.80
2022-08-19T09:42:49.643Z,12.30
2022-08-19T09:43:47.998Z,12.50
2022-08-19T09:44:47.241Z,15.30
2022-08-19T09:45:47.200Z,13.80
2022-08-19T09:46:47.157Z,14.10
2022-08-19T09:47:51.686Z,12.90
2022-08-19T09:48:47.076Z,12.60
2022-08-19T09:49:47.038Z,16.00
2022-08-19T09:50:51.853Z,13.40
2022-08-19T09:51:51.092Z,13.40
2022-08-19T09:52:55.273Z,13.30
2022-08-19T10:37:32.503Z,15.90
2022-08-19T10:38:32.989Z,16.40
2022-08-19T10:39:31.446Z,16.30
2022-08-19T10:40:30.800Z,16.70
2022-08-19T10:41:30.671Z,18.20
2022-08-19T10:42:30.631Z,16.70
2022-08-19T10:43:30.591Z,15.70
2022-08-19T10:44:32.082Z,15.20
2022-08-19T10:45:30.511Z,16.40
2022-08-19T10:46:30.473Z,16.00
2022-08-19T10:47:31.701Z,14.40
2022-08-19T10:48:30.392Z,15.60
2022-08-19T10:49:30.380Z,15.30
2022-08-19T10:50:30.318Z,16.10
2022-08-19T10:52:33.932Z,16.10
2022-08-19T10:53:33.893Z,15.70
2022-08-19T10:54:34.056Z,16.00
2022-08-19T10:55:34.014Z,17.50
2022-08-19T10:56:33.803Z,18.40
2022-08-19T10:57:52.278Z,16.80
2022-08-19T10:58:33.757Z,15.70
2022-08-19T10:59:36.143Z,15.40
2022-08-19T11:00:34.036Z,16.10
2022-08-19T11:01:33.896Z,14.80
2022-08-19T11:02:33.534Z,14.50
2022-08-19T11:03:33.491Z,14.60
2022-08-19T11:04:33.453Z,15.80
2022-08-19T11:05:39.629Z,14.90
2022-08-19T11:06:33.373Z,15.00
2022-08-19T11:07:33.332Z,13.60
2022-08-19T11:08:33.295Z,14.60
2022-08-19T11:09:34.328Z,13.40
2022-08-19T11:10:33.216Z,13.20
2022-08-19T11:11:33.174Z,13.00
2022-08-19T11:12:33.139Z,14.30
2022-08-19T11:13:33.091Z,13.50
2022-08-19T11:14:34.278Z,14.20
2022-08-19T11:15:33.018Z,13.60
2022-08-19T11:16:32.976Z,12.60
2022-08-19T11:17:32.930Z,12.80
2022-08-19T11:18:32.892Z,12.00
2022-08-19T11:19:32.851Z,13.00
2022-08-19T11:20:32.813Z,13.90
2022-08-19T11:21:32.776Z,13.70
2022-08-19T11:22:39.055Z,12.50
2022-08-19T11:23:32.691Z,12.30
2022-08-19T11:24:32.654Z,12.10
2022-08-19T11:25:32.610Z,12.00
2022-08-19T11:26:32.574Z,11.80
2022-08-19T11:27:32.528Z,11.10
2022-08-19T11:28:32.495Z,12.10
2022-08-19T11:29:32.452Z,12.00
2022-08-19T11:30:32.412Z,10.40
2022-08-19T11:31:32.367Z,11.90
2022-08-19T11:32:32.331Z,10.60
2022-08-19T11:33:32.290Z,11.10
2022-08-19T11:34:32.250Z,10.30
2022-08-19T11:35:32.208Z,10.10
2022-08-19T11:36:32.170Z,9.90
2022-08-19T11:37:32.126Z,9.00
2022-08-19T11:38:32.127Z,8.70
2022-08-19T11:39:32.120Z,10.40
2022-08-19T11:40:32.028Z,9.90
2022-08-19T11:41:32.002Z,9.80
2022-08-19T11:42:31.966Z,8.90
2022-08-19T11:43:36.765Z,9.40
2022-08-19T11:44:31.878Z,9.20
2022-08-19T11:45:31.813Z,10.10
2022-08-19T11:46:31.768Z,9.20
2022-08-19T11:47:31.726Z,8.30
2022-08-19T11:48:31.691Z,7.70
2022-08-19T11:49:31.647Z,8.10
2022-08-19T11:50:31.608Z,7.90
2022-08-19T11:51:31.565Z,7.50
2022-08-19T11:52:31.528Z,6.90
2022-08-19T11:53:31.488Z,8.50
2022-08-19T11:54:31.449Z,8.10
2022-08-19T11:55:31.407Z,7.90
2022-08-19T11:56:31.370Z,8.40
2022-08-19T11:57:31.328Z,8.30
2022-08-19T11:58:31.292Z,8.10
2022-08-19T11:59:31.253Z,7.70
2022-08-19T12:00:31.214Z,7.60
2022-08-19T12:01:31.171Z,7.60
2022-08-19T12:02:31.133Z,7.80
2022-08-19T12:03:31.123Z,7.30
2022-08-19T12:04:31.056Z,6.70
2022-08-19T12:05:31.014Z,7.20
2022-08-19T12:06:30.977Z,7.30
2022-08-19T12:07:30.934Z,7.40
2022-08-19T12:08:30.904Z,9.10
2022-08-19T12:09:30.970Z,8.00
2022-08-19T12:10:30.827Z,7.40
2022-08-19T12:11:31.241Z,8.50
2022-08-19T12:12:30.743Z,8.00
2022-08-19T12:13:30.701Z,8.50
2022-08-19T12:14:30.668Z,7.30
2022-08-19T12:15:30.757Z,7.60
2022-08-19T12:16:30.588Z,7.30
2022-08-19T12:17:30.545Z,7.70
2022-08-19T12:18:30.519Z,7.00
2022-08-19T12:19:30.467Z,7.30
2022-08-19T12:20:30.430Z,7.30
2022-08-19T12:21:30.394Z,7.50
2022-08-19T12:22:30.352Z,7.50
2022-08-19T12:23:30.310Z,6.50
2022-08-19T12:24:30.272Z,7.50
2022-08-19T12:25:30.255Z,7.30
2022-08-19T12:26:30.196Z,7.00
2022-08-19T12:27:40.475Z,6.30
2022-08-19T12:28:30.119Z,6.20
2022-08-19T12:29:30.079Z,7.60
2022-08-19T12:30:30.043Z,6.90
2022-08-19T12:31:30.001Z,6.70
2022-08-19T12:32:29.963Z,6.40
2022-08-19T12:33:29.924Z,6.40
2022-08-19T12:34:29.888Z,7.10
2022-08-19T12:35:29.844Z,6.30
2022-08-19T12:36:29.811Z,6.30
2022-08-19T12:37:29.769Z,6.30
2022-08-19T12:38:29.734Z,6.60
2022-08-19T12:39:29.690Z,7.30
2022-08-19T12:40:29.653Z,6.60
2022-08-19T12:41:29.619Z,6.30
2022-08-19T12:42:29.579Z,6.50
2022-08-19T12:43:29.568Z,6.20
2022-08-19T12:44:32.082Z,6.50
2022-08-19T12:45:29.456Z,5.80
2022-08-19T12:46:29.419Z,5.90
2022-08-19T12:47:29.380Z,6.50
2022-08-19T12:48:33.827Z,6.50
2022-08-19T12:49:52.126Z,5.90
2022-08-19T12:50:29.268Z,6.50
2022-08-19T12:51:29.224Z,6.10
2022-08-19T12:52:29.207Z,6.20
2022-08-19T12:53:29.149Z,6.00
2022-08-19T12:54:29.112Z,6.20
2022-08-19T12:55:29.071Z,5.90
2022-08-19T12:56:29.036Z,5.70
2022-08-19T12:57:32.612Z,5.60
2022-08-19T12:58:28.959Z,6.00
2022-08-19T12:59:28.924Z,6.30
2022-08-19T13:00:28.916Z,6.40
2022-08-19T13:01:28.878Z,6.50
2022-08-19T13:02:28.823Z,6.40
2022-08-19T13:03:28.765Z,6.30
2022-08-19T13:04:28.728Z,5.80
2022-08-19T13:05:28.690Z,5.60
2022-08-19T13:06:28.655Z,5.80
2022-08-19T13:07:28.613Z,5.40
2022-08-19T13:08:28.576Z,5.30
2022-08-19T13:09:28.537Z,5.50
2022-08-19T13:10:28.503Z,5.30
2022-08-19T13:11:28.460Z,5.20
2022-08-19T13:12:28.426Z,4.70
2022-08-19T13:13:28.387Z,4.80
2022-08-19T13:14:28.351Z,4.90
2022-08-19T13:15:28.310Z,5.50
2022-08-19T13:16:28.276Z,5.50
2022-08-19T13:17:28.234Z,5.30
2022-08-19T13:18:28.198Z,5.70
2022-08-19T13:19:28.158Z,5.40
2022-08-19T13:20:28.123Z,5.20
2022-08-19T13:21:28.081Z,5.90
2022-08-19T13:22:28.045Z,5.50
2022-08-19T13:23:28.004Z,5.50
2022-08-19T13:24:32.295Z,5.40
2022-08-19T13:25:27.932Z,5.00
2022-08-19T13:26:27.894Z,5.10
2022-08-19T13:27:27.859Z,5.30
2022-08-19T13:28:29.101Z,5.60
2022-08-19T13:29:27.779Z,5.30
2022-08-19T13:30:27.742Z,5.50
2022-08-19T13:31:27.702Z,5.10
2022-08-19T13:32:27.667Z,5.40
2022-08-19T13:33:27.628Z,4.90
2022-08-19T13:34:27.590Z,5.30
2022-08-19T13:35:27.553Z,5.10
2022-08-19T13:36:27.516Z,5.10
2022-08-19T13:37:27.476Z,5.10
2022-08-19T13:38:27.439Z,5.10
2022-08-19T13:39:27.398Z,4.90
2022-08-19T13:40:27.386Z,5.00
2022-08-19T13:41:27.322Z,4.90
2022-08-19T13:42:27.289Z,5.40
2022-08-19T13:43:27.247Z,5.20
2022-08-19T13:44:27.210Z,5.30
2022-08-19T13:45:27.170Z,4.50
2022-08-19T13:46:27.133Z,4.90
2022-08-19T13:47:27.095Z,5.10
2022-08-19T13:48:27.061Z,5.10
2022-08-19T13:49:27.018Z,4.50
2022-08-19T13:50:26.981Z,6.80
2022-08-19T13:51:26.941Z,6.60
2022-08-19T13:52:26.911Z,6.00
2022-08-19T13:53:26.864Z,6.20
2022-08-19T13:54:26.828Z,6.40
2022-08-19T13:55:26.788Z,5.40
2022-08-19T13:56:26.759Z,5.70
2022-08-19T13:57:26.711Z,5.40
2022-08-19T13:58:26.688Z,5.60
2022-08-19T13:59:26.636Z,5.20
2022-08-19T14:00:26.616Z,5.70
2022-08-19T14:01:26.558Z,5.20
2022-08-19T14:02:26.537Z,5.10
2022-08-19T14:03:26.569Z,5.10
2022-08-19T14:04:26.544Z,5.10
2022-08-19T14:05:26.489Z,5.10
2022-08-19T14:06:26.439Z,5.40
2022-08-19T14:07:26.326Z,5.20
2022-08-19T14:08:26.290Z,5.60
2022-08-19T14:09:26.249Z,5.90
2022-08-19T14:10:26.238Z,5.80
2022-08-19T14:11:26.174Z,6.30
2022-08-19T14:12:29.049Z,6.40
2022-08-19T14:13:26.096Z,6.60
2022-08-19T14:14:26.058Z,6.70
2022-08-19T14:15:26.019Z,6.30
2022-08-19T14:16:25.984Z,5.30
2022-08-19T14:17:25.941Z,5.70
2022-08-19T14:18:26.042Z,5.80
2022-08-19T14:19:25.866Z,5.40
2022-08-19T14:20:26.445Z,5.90
2022-08-19T14:21:25.790Z,6.30
2022-08-19T14:22:25.751Z,5.90
2022-08-19T14:23:25.712Z,5.40
2022-08-19T14:24:25.674Z,5.50
2022-08-19T14:25:25.638Z,5.30
2022-08-19T14:26:25.597Z,5.10
2022-08-19T14:27:25.555Z,5.00
2022-08-19T14:28:26.526Z,5.30
2022-08-19T14:29:25.479Z,5.10
2022-08-19T14:30:25.442Z,5.20
2022-08-19T14:31:30.249Z,4.90
2022-08-19T14:32:25.365Z,5.00
2022-08-19T14:33:29.861Z,5.60
2022-08-19T14:34:25.290Z,5.70
2022-08-19T14:35:25.246Z,6.00
2022-08-19T14:36:25.210Z,7.10
2022-08-19T14:37:25.169Z,7.10
2022-08-19T14:38:31.323Z,7.60
2022-08-19T14:39:25.093Z,7.20
2022-08-19T14:40:25.056Z,7.00
2022-08-19T14:41:25.015Z,8.00
2022-08-19T14:42:24.979Z,7.60
2022-08-19T14:43:24.937Z,8.00
2022-08-19T14:44:24.902Z,7.60
2022-08-19T14:45:24.861Z,7.10
2022-08-19T14:46:25.105Z,7.30
2022-08-19T14:47:24.786Z,7.10
2022-08-19T14:48:29.042Z,7.30
2022-08-19T14:49:26.788Z,6.80
2022-08-19T14:50:24.668Z,7.10
2022-08-19T14:51:24.634Z,6.30
2022-08-19T14:52:24.591Z,6.10
2022-08-19T14:53:24.553Z,5.80
2022-08-19T14:54:24.515Z,5.20
2022-08-19T14:55:24.474Z,5.80
2022-08-19T14:56:24.491Z,5.40
2022-08-19T14:57:24.418Z,5.20
2022-08-19T14:58:28.439Z,5.30
2022-08-19T14:59:24.356Z,5.40
2022-08-19T15:00:24.285Z,4.90
2022-08-19T15:01:24.304Z,5.60
2022-08-19T15:02:35.073Z,5.50
2022-08-19T15:03:24.164Z,5.20
2022-08-19T15:04:24.127Z,5.00
2022-08-19T15:05:24.088Z,4.90
2022-08-19T15:06:24.052Z,4.50
2022-08-19T15:07:24.012Z,4.50
2022-08-19T15:08:23.971Z,4.30
2022-08-19T15:09:23.933Z,4.50
2022-08-19T15:10:23.898Z,4.20
2022-08-19T15:11:23.882Z,4.60
2022-08-19T15:12:23.820Z,4.90
2022-08-19T15:13:23.780Z,4.90
2022-08-19T15:14:23.741Z,5.10
2022-08-19T15:15:23.704Z,5.20
2022-08-19T15:16:23.663Z,4.70
2022-08-19T15:17:45.164Z,4.60
2022-08-19T15:18:23.588Z,4.70
2022-08-19T15:19:23.549Z,4.80
2022-08-19T15:20:23.509Z,5.00
2022-08-19T15:21:25.061Z,4.70
2022-08-19T15:22:23.431Z,5.10
2022-08-19T15:23:23.395Z,5.40
2022-08-19T15:24:23.355Z,5.20
2022-08-19T15:25:23.319Z,5.80
2022-08-19T15:26:23.305Z,5.80
2022-08-19T15:27:23.469Z,5.80
2022-08-19T15:28:23.250Z,5.60
2022-08-19T15:29:23.168Z,5.40
2022-08-19T15:30:23.125Z,5.00
2022-08-19T15:31:25.302Z,4.90
2022-08-19T15:32:23.048Z,5.40
2022-08-19T15:33:23.014Z,5.10
2022-08-19T15:34:22.973Z,5.50
2022-08-19T15:35:22.934Z,5.00
2022-08-19T15:36:22.896Z,4.70
2022-08-19T15:37:22.860Z,5.60
2022-08-19T15:38:22.850Z,5.40
2022-08-19T15:39:22.782Z,6.20
2022-08-19T15:40:22.847Z,7.10
2022-08-19T15:41:22.717Z,6.70
2022-08-19T15:42:29.436Z,6.80
2022-08-19T15:43:22.631Z,7.50
2022-08-19T15:44:22.592Z,6.90
2022-08-19T15:45:22.555Z,5.90
2022-08-19T15:46:22.516Z,5.80
2022-08-19T15:47:22.481Z,5.60
2022-08-19T15:48:22.442Z,6.00
2022-08-19T15:49:22.660Z,7.60
2022-08-19T15:50:22.368Z,6.70
2022-08-19T15:51:22.553Z,7.50
2022-08-19T15:52:22.293Z,7.50
2022-08-19T16:08:48.751Z,6.50
2022-08-19T17:03:38.444Z,11.60
2022-08-19T17:04:38.352Z,10.40
2022-08-19T17:05:38.314Z,16.80
2022-08-19T17:06:38.278Z,18.20
2022-08-19T17:07:38.242Z,13.00
2022-08-19T17:08:38.201Z,9.20
2022-08-19T17:09:38.459Z,10.60
2022-08-19T17:10:38.128Z,30.50
2022-08-19T17:11:38.096Z,25.00
2022-08-19T17:12:38.058Z,23.90
2022-08-19T17:13:38.023Z,13.60
2022-08-19T17:14:40.715Z,19.90
2022-08-19T17:15:37.951Z,17.10
2022-08-19T17:16:37.911Z,10.90
2022-08-19T17:17:37.882Z,9.40
2022-08-19T17:19:26.242Z,17.20
2022-08-19T17:21:09.587Z,13.00
2022-08-19T17:22:09.549Z,10.90
2022-08-19T17:23:12.932Z,12.90
2022-08-19T17:24:09.473Z,14.00
2022-08-19T17:25:09.436Z,12.30
2022-08-19T17:26:09.397Z,24.50
2022-08-19T17:27:09.360Z,14.70
2022-08-19T17:28:09.324Z,13.00
2022-08-19T17:29:09.285Z,8.70
2022-08-19T17:30:09.254Z,7.40
2022-08-19T17:31:09.210Z,7.40
2022-08-19T17:32:09.174Z,7.30
2022-08-19T17:33:09.135Z,7.30
2022-08-19T17:34:09.225Z,6.70
2022-08-19T17:37:35.673Z,6.80
2022-08-19T17:38:35.634Z,6.80
2022-08-19T17:39:37.794Z,6.20
2022-08-19T17:40:35.557Z,6.20
2022-08-19T17:41:35.520Z,6.40
2022-08-19T17:42:35.478Z,6.00
2022-08-19T17:43:40.037Z,5.60
2022-08-19T17:44:35.402Z,6.10
2022-08-19T17:45:35.381Z,6.60
2022-08-19T17:46:35.322Z,6.30
2022-08-19T17:47:35.348Z,6.90
2022-08-19T17:49:35.313Z,11.20
2022-08-19T17:50:35.169Z,7.10
2022-08-19T17:51:35.386Z,6.40
2022-08-19T17:52:35.090Z,6.30
2022-08-19T17:53:35.065Z,6.40
2022-08-19T17:54:35.015Z,6.50
2022-08-19T17:55:34.974Z,8.00
2022-08-19T17:56:34.934Z,16.00
2022-08-19T18:00:59.968Z,6.80
2022-08-19T18:02:00.069Z,6.60
2022-08-19T18:02:59.828Z,7.20
2022-08-19T18:03:59.787Z,6.30
2022-08-19T18:04:59.749Z,7.60
2022-08-19T18:14:11.280Z,7.90
2022-08-19T18:15:11.235Z,7.60
2022-08-19T18:16:11.199Z,9.10
2022-08-19T18:17:11.155Z,7.50
2022-08-19T18:24:08.629Z,9.40
2022-08-19T18:25:08.587Z,9.10
2022-08-19T18:26:08.555Z,9.20
2022-08-19T18:27:08.508Z,8.80
2022-08-19T18:28:08.469Z,8.50
2022-08-19T18:29:08.427Z,8.60
2022-08-19T18:30:08.388Z,8.50
2022-08-19T18:31:08.344Z,10.00
2022-08-19T18:32:08.307Z,10.00
2022-08-19T18:33:09.212Z,10.50
2022-08-19T18:34:08.226Z,11.30
2022-08-19T18:35:08.185Z,10.60
2022-08-19T18:36:08.339Z,9.70
2022-08-19T18:37:08.105Z,10.60
2022-08-19T18:38:08.062Z,10.00
2022-08-19T18:39:08.127Z,10.00
2022-08-19T18:40:08.097Z,10.40
2022-08-19T18:41:07.939Z,10.40
2022-08-19T18:42:07.902Z,9.70
2022-08-19T18:43:07.903Z,10.20
2022-08-19T18:44:07.820Z,9.70
2022-08-19T18:45:07.778Z,9.10
2022-08-19T18:46:07.791Z,9.40
2022-08-19T18:47:07.757Z,9.10
2022-08-19T18:48:18.443Z,9.50
2022-08-19T18:49:07.613Z,9.10
2022-08-19T18:50:07.575Z,8.60
2022-08-19T18:51:07.617Z,8.90
2022-08-19T18:52:07.504Z,9.20
2022-08-19T18:54:07.410Z,8.40
2022-08-19T18:55:07.662Z,7.60
2022-08-19T18:56:07.621Z,8.70
2022-08-19T18:57:07.324Z,8.30
2022-08-19T18:58:07.247Z,9.00
2022-08-19T18:59:07.251Z,9.10
2022-08-19T19:00:07.166Z,9.80
2022-08-19T19:01:07.182Z,9.20
2022-08-19T19:02:07.103Z,9.10
2022-08-19T19:03:07.043Z,9.20
2022-08-19T19:04:07.057Z,9.10
2022-08-19T19:05:07.489Z,8.30
2022-08-19T19:06:06.920Z,8.10
2022-08-19T19:07:51.360Z,7.10
2022-08-19T19:08:51.232Z,6.60
2022-08-19T19:09:51.184Z,6.30
2022-08-19T19:10:51.140Z,6.30
2022-08-19T19:11:51.104Z,5.70
2022-08-19T19:12:51.060Z,5.40
2022-08-19T19:13:51.020Z,5.60
2022-08-19T19:14:50.995Z,5.30
2022-08-19T19:15:50.938Z,4.90
2022-08-19T19:16:50.896Z,5.30
2022-08-19T19:17:50.907Z,4.90
2022-08-19T19:18:50.814Z,5.20
2022-08-19T19:19:50.777Z,5.50
2022-08-19T19:20:50.732Z,5.50
2022-08-19T19:21:50.695Z,4.80
2022-08-19T19:22:50.671Z,4.90
2022-08-19T19:23:50.607Z,4.50
2022-08-19T19:24:50.566Z,4.80
2022-08-19T19:25:51.385Z,4.80
2022-08-19T19:26:50.484Z,4.50
2022-08-19T19:27:50.500Z,5.00
2022-08-19T19:28:50.401Z,4.50
2022-08-19T19:29:52.201Z,5.10
2022-08-19T19:30:50.318Z,5.10
2022-08-19T19:31:50.280Z,5.90
2022-08-19T19:32:50.237Z,5.20
2022-08-19T19:33:50.200Z,5.10
2022-08-19T19:34:50.154Z,5.60
2022-08-19T19:35:50.115Z,6.00
2022-08-19T19:36:50.071Z,6.10
2022-08-19T19:37:50.096Z,5.70
2022-08-19T19:38:49.988Z,6.20
2022-08-19T19:39:49.989Z,6.20
